Time;durP1;ratioP1;P1;durP2;ratioP2;P2;SDS_P1;SDS_P2;PMS_P1;PMS_P2;Temp;Humidity;BMP_temperature;BMP_pressure;BME280_temperature;BME280_humidity;BME280_pressure;Samples;Min_cycle;Max_cycle;Signal;HPM_P1;HPM_P2
2022/10/24 00:02:17;;;;;;;3.17;1.27;;;15.90;99.90;;;;;;4955237;29;20043;-67
2022/10/24 00:04:43;;;;;;;4.15;1.38;;;16.40;99.90;;;;;;4938276;29;20363;-67
2022/10/24 00:07:09;;;;;;;3.72;1.60;;;16.20;99.90;;;;;;4955278;29;20047;-66
2022/10/24 00:09:35;;;;;;;4.35;1.40;;;16.20;99.90;;;;;;4955566;29;20402;-67
2022/10/24 00:12:02;;;;;;;5.45;1.45;;;16.10;99.90;;;;;;4937976;29;20043;-67
2022/10/24 00:14:28;;;;;;;3.92;1.50;;;16.20;99.90;;;;;;4937836;29;20505;-67
2022/10/24 00:16:54;;;;;;;4.20;1.65;;;16.10;99.90;;;;;;4955356;29;20035;-67
2022/10/24 00:19:20;;;;;;;8.23;1.73;;;16.10;99.90;;;;;;4937909;29;20058;-67
2022/10/24 00:21:46;;;;;;;4.03;1.38;;;16.10;99.90;;;;;;4937447;29;20043;-66
2022/10/24 00:24:11;;;;;;;3.70;1.35;;;16.20;99.90;;;;;;4955302;29;20061;-67
2022/10/24 00:26:37;;;;;;;4.18;1.20;;;16.10;99.90;;;;;;4954902;29;20564;-67
2022/10/24 00:29:03;;;;;;;5.20;1.38;;;16.20;99.90;;;;;;4938152;29;20092;-67
2022/10/24 00:31:30;;;;;;;7.13;1.80;;;16.10;99.90;;;;;;4937598;29;20043;-67
2022/10/24 00:33:56;;;;;;;6.25;1.45;;;16.20;99.90;;;;;;4937492;29;20075;-67
2022/10/24 00:36:22;;;;;;;5.22;1.45;;;16.10;99.90;;;;;;4954259;29;20043;-67
2022/10/24 00:38:49;;;;;;;5.55;1.40;;;16.20;99.90;;;;;;4937815;29;20051;-67
2022/10/24 00:41:27;;;;;;;3.38;1.00;;;16.10;99.90;;;;;;4937723;29;20054;-67
2022/10/24 00:44:30;;;;;;;3.45;1.02;;;16.20;99.90;;;;;;4954835;29;20039;-67
2022/10/24 00:47:02;;;;;;;6.10;1.25;;;16.10;99.90;;;;;;4954785;29;20051;-67
2022/10/24 00:49:49;;;;;;;5.70;1.10;;;16.10;99.90;;;;;;4954665;29;20053;-67
2022/10/24 00:52:22;;;;;;;6.50;1.58;;;16.00;99.90;;;;;;4954766;29;20074;-65
2022/10/24 00:54:49;;;;;;;8.50;1.88;;;16.20;99.90;;;;;;4942073;29;20051;-67
2022/10/24 00:57:21;;;;;;;10.65;1.27;;;16.10;99.90;;;;;;4954637;29;20059;-67
2022/10/24 00:59:51;;;;;;;6.63;1.30;;;16.10;99.90;;;;;;4954578;29;20047;-67
2022/10/24 01:02:17;;;;;;;4.47;1.65;;;16.20;99.90;;;;;;4954808;29;20047;-67
2022/10/24 01:04:45;;;;;;;4.35;1.08;;;16.20;99.90;;;;;;4954596;29;20046;-68
2022/10/24 01:07:32;;;;;;;4.25;1.73;;;16.20;99.90;;;;;;4937360;29;20058;-66
2022/10/24 01:10:18;;;;;;;4.78;1.20;;;16.20;99.90;;;;;;4954713;29;20039;-68
2022/10/24 01:12:54;;;;;;;6.03;1.23;;;16.20;99.90;;;;;;4954689;29;20036;-67
2022/10/24 01:15:43;;;;;;;4.88;1.90;;;16.10;99.90;;;;;;4942707;29;20375;-67
2022/10/24 01:18:15;;;;;;;5.28;1.50;;;16.30;99.90;;;;;;4937198;29;20058;-67
2022/10/24 01:21:04;;;;;;;3.45;1.20;;;16.20;99.90;;;;;;4937733;29;20110;-67
2022/10/24 01:24:18;;;;;;;4.65;1.65;;;16.20;99.90;;;;;;4954557;29;20094;-67
2022/10/24 01:27:02;;;;;;;7.07;1.85;;;16.20;99.90;;;;;;4954351;29;20106;-67
2022/10/24 01:29:45;;;;;;;5.78;1.98;;;16.20;99.90;;;;;;4937304;29;20107;-67
2022/10/24 01:32:14;;;;;;;8.43;1.77;;;16.10;99.90;;;;;;4924271;29;20385;-67
2022/10/24 01:34:57;;;;;;;4.82;2.10;;;16.20;99.90;;;;;;4937054;29;20501;-67
2022/10/24 01:37:38;;;;;;;4.63;2.00;;;16.10;99.90;;;;;;4941824;29;20044;-67
2022/10/24 01:40:16;;;;;;;7.88;2.00;;;16.00;99.90;;;;;;4937140;29;20047;-67
2022/10/24 01:42:43;;;;;;;9.18;2.80;;;16.00;99.90;;;;;;4954737;29;20061;-67
2022/10/24 01:45:12;;;;;;;5.25;2.15;;;15.90;99.90;;;;;;4954104;29;20051;-67
2022/10/24 01:47:44;;;;;;;8.00;2.40;;;16.10;99.90;;;;;;4941312;29;20035;-67
2022/10/24 01:50:13;;;;;;;10.70;2.15;;;16.20;99.90;;;;;;4939085;29;20477;-66
2022/10/24 01:52:42;;;;;;;6.32;2.20;;;16.10;99.90;;;;;;4957763;29;20035;-67
2022/10/24 01:55:09;;;;;;;7.18;2.28;;;16.20;99.90;;;;;;4940683;29;20051;-68
2022/10/24 01:57:35;;;;;;;10.63;2.08;;;16.10;99.90;;;;;;4957418;29;20485;-67
2022/10/24 02:00:03;;;;;;;6.15;1.88;;;16.20;99.90;;;;;;4957735;29;20043;-67
2022/10/24 02:02:41;;;;;;;10.20;2.63;;;16.20;99.90;;;;;;4957760;29;20441;-67
2022/10/24 02:05:22;;;;;;;6.88;2.13;;;16.40;99.90;;;;;;4940622;29;20184;-68
2022/10/24 02:07:52;;;;;;;8.05;2.05;;;16.20;99.90;;;;;;4940213;29;20039;-66
2022/10/24 02:10:23;;;;;;;8.82;1.88;;;16.20;99.90;;;;;;4957780;29;20127;-67
2022/10/24 02:12:56;;;;;;;6.07;2.22;;;16.30;99.90;;;;;;4957278;29;20041;-67
2022/10/24 02:15:28;;;;;;;8.30;1.83;;;16.00;99.90;;;;;;4940249;29;20047;-67
2022/10/24 02:17:56;;;;;;;7.18;2.13;;;16.30;99.90;;;;;;4957512;29;20437;-67
2022/10/24 02:20:34;;;;;;;7.82;4.28;;;16.40;99.90;;;;;;4957182;29;20035;-67
2022/10/24 02:23:13;;;;;;;9.52;2.10;;;16.40;99.90;;;;;;4957219;29;20078;-67
2022/10/24 02:25:47;;;;;;;6.68;2.08;;;16.30;99.90;;;;;;4939914;29;20048;-67
2022/10/24 02:28:17;;;;;;;9.38;2.03;;;16.40;99.90;;;;;;4940278;29;20113;-67
2022/10/24 02:30:59;;;;;;;7.63;1.95;;;16.40;99.90;;;;;;4957188;29;20043;-67
2022/10/24 02:33:26;;;;;;;8.15;2.03;;;16.20;99.90;;;;;;4956896;29;20079;-67
2022/10/24 02:35:54;;;;;;;7.60;2.15;;;16.30;99.90;;;;;;4939787;29;20087;-67
2022/10/24 02:38:25;;;;;;;9.63;2.80;;;16.30;99.90;;;;;;4957035;29;20047;-67
2022/10/24 02:40:52;;;;;;;4.97;3.00;;;16.50;99.90;;;;;;4923907;29;20047;-68
2022/10/24 02:43:21;;;;;;;5.50;1.65;;;16.30;99.90;;;;;;4956636;29;20071;-66
2022/10/24 02:45:49;;;;;;;7.00;1.70;;;16.40;99.90;;;;;;4956721;29;20052;-67
2022/10/24 02:48:18;;;;;;;7.40;1.92;;;16.30;99.90;;;;;;4956670;29;20402;-67
2022/10/24 02:50:44;;;;;;;8.00;2.47;;;16.40;99.90;;;;;;4939572;29;20046;-67
2022/10/24 02:53:14;;;;;;;7.07;1.50;;;16.30;99.90;;;;;;4956640;28;20493;-67
2022/10/24 02:55:39;;;;;;;7.35;1.30;;;16.30;99.90;;;;;;4956493;29;20063;-66
2022/10/24 02:58:05;;;;;;;5.20;1.90;;;16.30;99.90;;;;;;4956463;29;20402;-67
2022/10/24 03:00:31;;;;;;;4.68;1.90;;;16.30;99.90;;;;;;4938665;29;20054;-67
2022/10/24 03:02:57;;;;;;;9.30;1.95;;;16.30;99.90;;;;;;4956217;29;20413;-67
2022/10/24 03:05:22;;;;;;;7.55;1.90;;;16.20;99.90;;;;;;4956576;29;20450;-67
2022/10/24 03:07:48;;;;;;;7.80;2.20;;;16.20;99.90;;;;;;4956394;29;20118;-67
2022/10/24 03:10:14;;;;;;;11.70;1.90;;;;;;;;;;4956366;29;20043;-65
2022/10/24 03:12:39;;;;;;;5.80;2.28;;;16.10;99.90;;;;;;4938888;29;20572;-67
2022/10/24 03:15:06;;;;;;;8.50;1.90;;;16.10;99.90;;;;;;4938981;29;20123;-67
2022/10/24 03:17:31;;;;;;;6.22;1.73;;;16.20;99.90;;;;;;4939041;29;20482;-67
2022/10/24 03:19:57;;;;;;;5.93;1.70;;;16.40;99.90;;;;;;4956381;29;20047;-67
2022/10/24 03:22:22;;;;;;;7.03;1.90;;;16.40;99.90;;;;;;4956273;29;20066;-67
2022/10/24 03:24:48;;;;;;;5.15;2.63;;;;;;;;;;4939033;29;20090;-67
2022/10/24 03:27:14;;;;;;;7.05;2.30;;;16.20;99.90;;;;;;4956084;29;20047;-67
2022/10/24 03:29:39;;;;;;;5.25;1.65;;;16.00;99.90;;;;;;4955953;29;20394;-68
2022/10/24 03:32:05;;;;;;;7.57;1.98;;;16.10;99.90;;;;;;4956157;29;20122;-67
2022/10/24 03:34:31;;;;;;;6.00;2.58;;;16.10;99.90;;;;;;4938501;29;20083;-67
2022/10/24 03:36:57;;;;;;;7.75;1.70;;;16.20;99.90;;;;;;4939023;29;20047;-67
2022/10/24 03:39:22;;;;;;;12.00;2.15;;;16.10;99.90;;;;;;4938829;29;20090;-67
2022/10/24 03:41:48;;;;;;;8.10;1.98;;;16.20;99.90;;;;;;4955803;29;20477;-67
2022/10/24 03:44:13;;;;;;;5.70;1.88;;;16.20;99.90;;;;;;4938331;29;20043;-67
2022/10/24 03:46:39;;;;;;;5.15;1.98;;;16.20;99.90;;;;;;4955777;29;20044;-67
2022/10/24 03:49:04;;;;;;;4.82;1.75;;;16.20;99.90;;;;;;4938218;29;20043;-67
2022/10/24 03:51:30;;;;;;;9.32;2.65;;;16.10;99.90;;;;;;4938471;29;20047;-67
2022/10/24 03:53:56;;;;;;;5.65;1.70;;;16.10;99.90;;;;;;4955513;29;20035;-67
2022/10/24 03:56:21;;;;;;;6.28;2.00;;;16.00;99.90;;;;;;4955366;29;20075;-66
2022/10/24 03:58:47;;;;;;;6.03;2.10;;;16.00;99.90;;;;;;4955358;29;20098;-65
2022/10/24 04:01:16;;;;;;;4.35;1.85;;;16.00;99.90;;;;;;4955504;29;20090;-67
2022/10/24 04:03:43;;;;;;;7.90;1.65;;;15.90;99.90;;;;;;4938180;29;20046;-67
2022/10/24 04:06:09;;;;;;;6.82;2.28;;;16.00;99.90;;;;;;4955213;29;20126;-67
2022/10/24 04:08:34;;;;;;;5.10;1.90;;;15.90;99.90;;;;;;4955424;29;20119;-66
2022/10/24 04:11:00;;;;;;;6.93;2.25;;;16.00;99.90;;;;;;4955366;29;20099;-67
2022/10/24 04:13:26;;;;;;;7.75;1.50;;;15.90;99.90;;;;;;4937609;29;20046;-67
2022/10/24 04:15:51;;;;;;;8.30;1.38;;;16.00;99.90;;;;;;4937839;29;20486;-67
2022/10/24 04:18:17;;;;;;;4.43;1.70;;;16.00;99.90;;;;;;4955484;29;20126;-67
2022/10/24 04:20:43;;;;;;;3.72;1.80;;;16.10;99.90;;;;;;4938387;29;20062;-67
2022/10/24 04:23:08;;;;;;;5.82;1.50;;;16.20;99.90;;;;;;4955059;29;20039;-67
2022/10/24 04:25:34;;;;;;;7.57;1.77;;;16.00;99.90;;;;;;4937804;29;20044;-67
2022/10/24 04:28:00;;;;;;;13.68;2.38;;;16.00;99.90;;;;;;4954973;29;20043;-67
2022/10/24 04:30:27;;;;;;;3.15;1.52;;;16.00;99.90;;;;;;4955034;29;20482;-67
2022/10/24 04:32:53;;;;;;;9.50;2.03;;;16.10;99.90;;;;;;4937764;29;20095;-66
2022/10/24 04:35:18;;;;;;;7.45;2.13;;;16.00;99.90;;;;;;4955007;29;20082;-67
2022/10/24 04:37:44;;;;;;;4.70;2.17;;;;;;;;;;4937583;29;20175;-65
2022/10/24 04:40:10;;;;;;;3.53;1.33;;;15.90;99.90;;;;;;4954911;29;20046;-67
2022/10/24 04:42:36;;;;;;;6.60;1.85;;;15.90;99.90;;;;;;4954970;29;20130;-67
2022/10/24 04:45:02;;;;;;;14.18;2.00;;;15.80;99.90;;;;;;4937384;29;20071;-67
2022/10/24 04:47:27;;;;;;;6.60;1.60;;;16.00;99.90;;;;;;4937826;29;20050;-67
2022/10/24 04:49:53;;;;;;;9.13;1.70;;;15.70;99.90;;;;;;4954738;29;20041;-66
2022/10/24 04:52:18;;;;;;;9.18;2.22;;;15.80;99.90;;;;;;4954768;29;20046;-67
2022/10/24 04:54:44;;;;;;;5.35;1.30;;;15.80;99.90;;;;;;4954973;29;20130;-67
2022/10/24 04:57:09;;;;;;;6.88;2.20;;;15.70;99.90;;;;;;4937283;29;20059;-67
2022/10/24 04:59:35;;;;;;;11.20;1.98;;;15.70;99.90;;;;;;4954065;29;20039;-67
2022/10/24 05:02:01;;;;;;;5.38;1.60;;;15.80;99.90;;;;;;4954886;29;20383;-67
2022/10/24 05:04:26;;;;;;;7.30;1.88;;;15.50;99.90;;;;;;4937226;29;20445;-67
2022/10/24 05:06:52;;;;;;;7.07;1.77;;;15.50;99.90;;;;;;4937513;29;20104;-67
2022/10/24 05:09:17;;;;;;;4.18;1.77;;;15.60;99.90;;;;;;4937313;29;20058;-67
2022/10/24 05:11:43;;;;;;;6.55;1.60;;;15.80;99.90;;;;;;4954642;28;20035;-67
2022/10/24 05:14:09;;;;;;;9.75;1.92;;;15.60;99.90;;;;;;4954949;29;20043;-67
2022/10/24 05:16:34;;;;;;;6.72;2.25;;;15.50;99.90;;;;;;4954951;29;20474;-67
2022/10/24 05:19:00;;;;;;;5.90;1.20;;;15.70;99.90;;;;;;4954770;29;20047;-67
2022/10/24 05:21:25;;;;;;;4.82;1.42;;;15.70;99.90;;;;;;4954497;29;20042;-67
2022/10/24 05:23:51;;;;;;;8.43;2.85;;;15.60;99.90;;;;;;4954454;28;20094;-67
2022/10/24 05:26:16;;;;;;;5.32;1.48;;;15.90;99.90;;;;;;4958117;29;20047;-67
2022/10/24 05:28:42;;;;;;;5.20;1.02;;;15.70;99.90;;;;;;4941383;29;20131;-67
2022/10/24 05:31:07;;;;;;;7.07;1.30;;;15.80;99.90;;;;;;4958145;29;20505;-66
2022/10/24 05:33:33;;;;;;;6.60;1.33;;;16.00;99.90;;;;;;4940815;29;20090;-67
2022/10/24 05:35:59;;;;;;;5.78;1.60;;;15.70;99.90;;;;;;4958208;29;20119;-67
2022/10/24 05:38:25;;;;;;;8.50;2.10;;;15.70;99.90;;;;;;4940995;29;20518;-67
2022/10/24 05:40:50;;;;;;;5.43;1.50;;;15.70;99.90;;;;;;4958083;29;20084;-67
2022/10/24 05:43:17;;;;;;;5.57;1.50;;;15.70;99.90;;;;;;4957714;29;20066;-67
2022/10/24 05:45:43;;;;;;;6.55;1.50;;;15.60;99.90;;;;;;4957976;29;20039;-68
2022/10/24 05:48:09;;;;;;;7.28;1.02;;;15.80;99.90;;;;;;4941083;29;20047;-68
2022/10/24 05:50:35;;;;;;;6.38;1.20;;;15.90;99.90;;;;;;4957743;29;20043;-68
2022/10/24 05:53:02;;;;;;;5.50;1.13;;;15.80;99.90;;;;;;4956658;29;20086;-68
2022/10/24 05:55:29;;;;;;;7.78;1.30;;;15.90;99.90;;;;;;4957592;29;20063;-67
2022/10/24 05:57:55;;;;;;;6.13;1.45;;;;;;;;;;4957049;29;20059;-66
2022/10/24 06:00:21;;;;;;;6.43;1.45;;;16.00;99.90;;;;;;4940026;29;20047;-67
2022/10/24 06:02:46;;;;;;;6.28;1.00;;;15.90;99.90;;;;;;4940322;29;20035;-67
2022/10/24 06:05:13;;;;;;;4.07;1.02;;;16.00;99.90;;;;;;4957423;28;20035;-66
2022/10/24 06:07:40;;;;;;;4.28;1.63;;;16.00;99.90;;;;;;4957032;28;20035;-67
2022/10/24 06:10:07;;;;;;;5.13;1.40;;;15.90;99.90;;;;;;4958683;28;20066;-66
2022/10/24 06:12:35;;;;;;;6.68;1.27;;;15.90;99.90;;;;;;4956183;28;20509;-67
2022/10/24 06:15:00;;;;;;;9.82;1.48;;;15.90;99.90;;;;;;4957377;28;20038;-67
2022/10/24 06:17:26;;;;;;;8.50;1.55;;;16.00;99.90;;;;;;4940113;29;20045;-67
2022/10/24 06:19:52;;;;;;;4.57;1.17;;;16.00;99.90;;;;;;4940025;29;20421;-67
2022/10/24 06:22:18;;;;;;;6.70;1.70;;;15.90;99.90;;;;;;4956824;28;20086;-67
2022/10/24 06:24:44;;;;;;;7.03;1.42;;;15.90;99.90;;;;;;4957175;28;20035;-67
2022/10/24 06:27:09;;;;;;;9.70;1.70;;;15.90;99.90;;;;;;4956947;29;20055;-67
2022/10/24 06:29:35;;;;;;;5.80;1.40;;;15.90;99.90;;;;;;4956585;29;20035;-67
2022/10/24 06:32:01;;;;;;;6.22;1.10;;;15.80;99.90;;;;;;4956967;29;20037;-67
2022/10/24 06:34:27;;;;;;;5.97;1.05;;;15.80;99.90;;;;;;4957021;29;20043;-67
2022/10/24 06:36:53;;;;;;;4.65;1.15;;;15.90;99.90;;;;;;4956793;28;20047;-67
2022/10/24 06:39:19;;;;;;;6.50;1.33;;;15.80;99.90;;;;;;4956784;29;20039;-67
2022/10/24 06:41:44;;;;;;;6.05;1.42;;;15.70;99.90;;;;;;4956680;29;20059;-66
2022/10/24 06:44:10;;;;;;;9.95;1.27;;;15.70;99.90;;;;;;4939539;29;20041;-66
2022/10/24 06:46:35;;;;;;;2.88;1.00;;;15.80;99.90;;;;;;4939606;29;20094;-66
2022/10/24 06:49:01;;;;;;;6.68;0.95;;;15.80;99.90;;;;;;4956785;29;20031;-67
2022/10/24 06:51:26;;;;;;;7.35;1.13;;;15.70;99.90;;;;;;4956858;29;20045;-67
2022/10/24 06:53:52;;;;;;;4.40;1.05;;;16.00;99.90;;;;;;4956577;29;20058;-67
2022/10/24 06:56:18;;;;;;;9.82;1.42;;;16.00;99.90;;;;;;4956553;29;20051;-66
2022/10/24 06:58:43;;;;;;;6.65;1.63;;;15.70;99.90;;;;;;4956728;29;20055;-67
2022/10/24 07:01:18;;;;;;;5.47;1.33;;;15.80;99.90;;;;;;4956705;29;20053;-67
2022/10/24 07:03:44;;;;;;;8.82;1.25;;;15.90;99.90;;;;;;4939218;29;20482;-67
2022/10/24 07:06:17;;;;;;;5.55;1.38;;;15.80;99.90;;;;;;4956335;29;20046;-67
2022/10/24 07:08:43;;;;;;;8.57;1.48;;;15.90;99.90;;;;;;4956424;29;20043;-67
2022/10/24 07:11:09;;;;;;;6.38;1.27;;;15.90;99.90;;;;;;4956155;29;20042;-67
2022/10/24 07:13:36;;;;;;;9.75;1.63;;;16.00;99.90;;;;;;4956649;29;20413;-67
2022/10/24 07:16:01;;;;;;;5.78;1.25;;;16.10;99.90;;;;;;4956349;29;20395;-68
2022/10/24 07:18:27;;;;;;;7.90;1.55;;;16.10;99.90;;;;;;4939061;29;20066;-67
2022/10/24 07:20:52;;;;;;;6.75;1.30;;;16.10;99.90;;;;;;4956359;28;20043;-67
2022/10/24 07:23:18;;;;;;;6.07;1.48;;;16.10;99.90;;;;;;4955400;28;20039;-67
2022/10/24 07:25:44;;;;;;;6.50;1.48;;;16.20;99.90;;;;;;4955478;28;20049;-67
2022/10/24 07:28:10;;;;;;;4.63;0.88;;;16.30;99.90;;;;;;4955083;29;20545;-67
2022/10/24 07:30:37;;;;;;;4.75;1.60;;;16.30;99.90;;;;;;4955088;29;20049;-67
2022/10/24 07:33:04;;;;;;;7.90;1.73;;;16.30;99.90;;;;;;4937881;29;20420;-67
2022/10/24 07:35:29;;;;;;;5.47;1.38;;;16.50;99.90;;;;;;4954629;29;20035;-67
2022/10/24 07:37:55;;;;;;;5.30;0.98;;;16.40;99.90;;;;;;4937845;29;20054;-67
2022/10/24 07:40:21;;;;;;;4.53;1.00;;;16.40;99.90;;;;;;4937350;29;20606;-67
2022/10/24 07:42:47;;;;;;;6.38;1.40;;;16.30;99.90;;;;;;4954779;29;20501;-67
2022/10/24 07:45:13;;;;;;;8.35;1.52;;;16.40;99.90;;;;;;4935807;29;20086;-67
2022/10/24 07:47:38;;;;;;;7.88;1.13;;;16.60;99.90;;;;;;4953286;28;20036;-67
2022/10/24 07:50:05;;;;;;;6.38;1.42;;;16.40;99.90;;;;;;4937941;29;20044;-67
2022/10/24 07:52:30;;;;;;;5.00;1.92;;;16.40;99.90;;;;;;4937467;29;20050;-67
2022/10/24 07:54:57;;;;;;;6.35;1.55;;;16.60;99.90;;;;;;4954200;29;20031;-67
2022/10/24 07:57:23;;;;;;;6.00;1.67;;;16.30;99.90;;;;;;4955033;28;20055;-67
2022/10/24 07:59:49;;;;;;;4.68;1.23;;;16.50;99.90;;;;;;4955582;29;20039;-67
2022/10/24 08:02:16;;;;;;;6.57;1.50;;;16.80;99.90;;;;;;4955565;29;20042;-65
2022/10/24 08:04:42;;;;;;;4.28;1.15;;;16.70;99.90;;;;;;4955508;29;20089;-66
2022/10/24 08:07:11;;;;;;;10.40;1.40;;;16.60;99.90;;;;;;4937739;29;20441;-66
2022/10/24 08:09:42;;;;;;;3.63;1.02;;;16.50;99.90;;;;;;4955157;29;20035;-65
2022/10/24 08:12:08;;;;;;;7.25;0.98;;;16.60;99.90;;;;;;4938303;29;20043;-65
2022/10/24 08:14:35;;;;;;;11.93;1.27;;;16.60;99.90;;;;;;4933379;29;20043;-65
2022/10/24 08:17:01;;;;;;;6.95;2.13;;;16.60;99.90;;;;;;4955083;29;20047;-65
2022/10/24 08:19:26;;;;;;;4.45;1.13;;;16.60;99.90;;;;;;4955038;29;20118;-65
2022/10/24 08:21:52;;;;;;;4.30;1.17;;;16.50;99.90;;;;;;4955096;29;20035;-65
2022/10/24 08:24:18;;;;;;;8.43;1.00;;;16.70;99.90;;;;;;4937707;29;20047;-64
2022/10/24 08:26:43;;;;;;;6.63;1.63;;;16.80;99.90;;;;;;4955086;29;20063;-65
2022/10/24 08:29:10;;;;;;;6.72;1.15;;;16.70;99.90;;;;;;4938016;29;20058;-65
2022/10/24 08:31:37;;;;;;;7.05;1.02;;;16.60;99.90;;;;;;4955127;29;20039;-65
2022/10/24 08:34:04;;;;;;;7.47;1.77;;;16.70;99.90;;;;;;4954764;28;20035;-65
2022/10/24 08:36:32;;;;;;;11.00;1.10;;;16.80;99.90;;;;;;4954903;29;20479;-65
2022/10/24 08:38:59;;;;;;;6.93;1.65;;;16.60;99.90;;;;;;4954657;29;20118;-65
2022/10/24 08:41:24;;;;;;;7.45;1.77;;;16.70;99.90;;;;;;4954998;29;20118;-64
2022/10/24 08:43:55;;;;;;;5.40;1.27;;;16.60;99.90;;;;;;4933848;29;20625;-66
2022/10/24 08:46:47;;;;;;;6.25;1.55;;;16.80;99.90;;;;;;4921850;29;20039;-65
2022/10/24 08:49:28;;;;;;;4.78;1.17;;;16.90;99.90;;;;;;4937457;29;20486;-65
2022/10/24 08:51:58;;;;;;;6.45;1.42;;;16.80;99.90;;;;;;4954947;29;20454;-65
2022/10/24 08:54:31;;;;;;;8.63;1.15;;;16.60;99.90;;;;;;4924648;29;20394;-66
2022/10/24 08:56:58;;;;;;;6.75;1.38;;;16.90;99.90;;;;;;4954694;29;20117;-65
2022/10/24 08:59:27;;;;;;;4.90;1.17;;;17.00;99.90;;;;;;4955520;28;20449;-65
2022/10/24 09:01:59;;;;;;;8.05;1.40;;;17.10;99.90;;;;;;4940910;28;20170;-65
2022/10/24 09:04:32;;;;;;;7.45;1.55;;;17.40;99.90;;;;;;4958151;28;20054;-64
2022/10/24 09:06:59;;;;;;;7.13;1.35;;;17.30;99.90;;;;;;4958277;28;20114;-65
2022/10/24 09:09:38;;;;;;;8.10;0.90;;;17.30;99.90;;;;;;4940815;29;20397;-66
2022/10/24 09:12:18;;;;;;;6.45;1.75;;;17.20;99.90;;;;;;4958174;28;20039;-66
2022/10/24 09:14:48;;;;;;;8.02;1.20;;;17.30;99.90;;;;;;4957938;28;20043;-65
2022/10/24 09:17:23;;;;;;;7.57;1.23;;;17.10;99.90;;;;;;4958060;28;20035;-66
2022/10/24 09:19:58;;;;;;;9.60;0.85;;;17.00;99.90;;;;;;4940654;28;20043;-65
2022/10/24 09:22:25;;;;;;;;;;;17.20;99.90;;;;;;4958411;28;20039;-65
2022/10/24 09:25:00;;;;;;;7.90;1.05;;;17.30;99.90;;;;;;4938782;29;20111;-65
2022/10/24 09:27:28;;;;;;;;;;;17.50;99.90;;;;;;4941022;29;20144;-65
2022/10/24 09:29:55;;;;;;;7.13;1.13;;;17.60;99.90;;;;;;4948112;29;19989;-64
2022/10/24 09:32:25;;;;;;;7.05;1.10;;;18.40;99.90;;;;;;4953887;29;20043;-65
2022/10/24 09:34:51;;;;;;;11.55;2.30;;;18.80;99.90;;;;;;4954287;29;20118;-66
2022/10/24 09:37:38;;;;;;;5.88;1.40;;;18.90;99.90;;;;;;4954054;29;20509;-65
2022/10/24 09:40:19;;;;;;;6.63;0.85;;;18.50;99.90;;;;;;4940898;29;20101;-66
2022/10/24 09:43:10;;;;;;;8.52;1.90;;;18.30;99.90;;;;;;4950490;29;20071;-65
2022/10/24 09:45:45;;;;;;;4.22;1.00;;;18.20;99.90;;;;;;4940757;29;20055;-66
2022/10/24 09:48:27;;;;;;;;;;;18.10;99.90;;;;;;4941201;29;20085;-64
2022/10/24 09:50:54;;;;;;;6.18;1.52;;;17.80;99.90;;;;;;4940723;29;19918;-67
2022/10/24 09:53:31;;;;;;;4.65;1.00;;;18.20;99.90;;;;;;4957703;29;20118;-66
2022/10/24 09:56:09;;;;;;;6.88;1.10;;;18.20;99.90;;;;;;4957546;28;20056;-65
2022/10/24 09:58:35;;;;;;;7.03;1.05;;;;;;;;;;4957936;29;20051;-64
2022/10/24 10:01:26;;;;;;;8.07;0.80;;;18.00;99.90;;;;;;4940311;29;20081;-66
2022/10/24 10:04:04;;;;;;;5.95;0.95;;;17.60;99.90;;;;;;4957113;29;20065;-66
2022/10/24 10:06:31;;;;;;;6.35;1.08;;;17.50;99.90;;;;;;4945547;29;20046;-65
2022/10/24 10:08:57;;;;;;;6.85;1.08;;;17.90;99.90;;;;;;4957541;29;20043;-65
2022/10/24 10:11:25;;;;;;;13.73;1.52;;;17.90;99.90;;;;;;4924019;29;20035;-65
2022/10/24 10:13:54;;;;;;;10.05;1.90;;;17.70;99.90;;;;;;4940182;29;20055;-66
2022/10/24 10:16:29;;;;;;;6.55;0.90;;;17.30;99.90;;;;;;4957314;29;20468;-66
2022/10/24 10:19:03;;;;;;;9.23;1.52;;;17.10;99.90;;;;;;4940306;29;20043;-66
2022/10/24 10:21:54;;;;;;;6.50;2.17;;;18.10;99.90;;;;;;4939867;29;20110;-66
2022/10/24 10:24:26;;;;;;;4.88;0.70;;;18.30;99.90;;;;;;4956736;28;20043;-65
2022/10/24 10:26:52;;;;;;;9.95;0.90;;;18.40;99.90;;;;;;4938141;28;20035;-66
2022/10/24 10:29:18;;;;;;;10.65;0.82;;;18.40;99.90;;;;;;4955483;28;20110;-65
2022/10/24 10:32:02;;;;;;;9.52;1.13;;;18.10;99.90;;;;;;4956806;28;20031;-66
2022/10/24 10:34:54;;;;;;;6.25;0.88;;;17.90;99.90;;;;;;4957125;28;20051;-66
2022/10/24 10:37:37;;;;;;;5.90;1.05;;;17.60;99.90;;;;;;4948373;29;20082;-66
2022/10/24 10:40:24;;;;;;;6.53;0.75;;;17.40;99.90;;;;;;4939863;29;20050;-65
2022/10/24 10:43:09;;;;;;;6.55;1.42;;;17.60;99.90;;;;;;4939869;29;20043;-66
2022/10/24 10:45:53;;;;;;;8.35;1.55;;;17.30;99.90;;;;;;4939796;28;20086;-65
2022/10/24 10:48:46;;;;;;;21.08;2.38;;;17.40;99.90;;;;;;4956756;28;20058;-65
2022/10/24 10:51:20;;;;;;;8.88;0.93;;;17.50;99.90;;;;;;4951983;29;20035;-66
2022/10/24 10:53:56;;;;;;;7.13;1.23;;;17.60;99.90;;;;;;4939534;29;20445;-65
2022/10/24 10:56:36;;;;;;;8.30;1.00;;;17.50;99.90;;;;;;4932895;29;20078;-65
2022/10/24 10:59:16;;;;;;;5.03;1.23;;;17.10;99.90;;;;;;4956455;29;20043;-65
2022/10/24 11:02:20;;;;;;;5.70;1.08;;;17.30;99.90;;;;;;4939591;29;20394;-65
2022/10/24 11:04:50;;;;;;;5.22;0.88;;;17.40;99.90;;;;;;4951048;29;20039;-64
2022/10/24 11:07:29;;;;;;;7.45;0.95;;;17.00;99.90;;;;;;4939198;29;20502;-66
2022/10/24 11:10:02;;;;;;;11.15;1.02;;;17.20;99.90;;;;;;4956572;29;20043;-65
2022/10/24 11:12:38;;;;;;;10.60;1.02;;;17.30;99.90;;;;;;4939100;29;20051;-65
2022/10/24 11:15:17;;;;;;;9.63;1.92;;;17.20;99.90;;;;;;4939095;29;20114;-65
2022/10/24 11:18:25;;;;;;;7.70;0.80;;;17.10;99.90;;;;;;4938973;29;20047;-65
2022/10/24 11:21:07;;;;;;;6.60;0.77;;;17.20;99.90;;;;;;4950304;29;20441;-65
2022/10/24 11:23:53;;;;;;;4.20;0.70;;;17.10;99.90;;;;;;4950800;29;20127;-65
2022/10/24 11:26:27;;;;;;;3.08;0.77;;;17.20;99.90;;;;;;4949538;29;20051;-65
2022/10/24 11:29:01;;;;;;;;;;;17.40;99.90;;;;;;4956628;29;20035;-65
2022/10/24 11:31:38;;;;;;;14.07;1.02;;;17.30;99.90;;;;;;4956215;29;19918;-65
2022/10/24 11:34:11;;;;;;;7.43;0.95;;;17.40;99.90;;;;;;4938289;28;20039;-66
2022/10/24 11:36:54;;;;;;;11.52;1.52;;;17.20;99.90;;;;;;4938399;28;20043;-64
2022/10/24 11:39:50;;;;;;;8.45;1.15;;;17.30;99.90;;;;;;4955628;28;20039;-64
2022/10/24 11:42:44;;;;;;;5.10;1.05;;;17.40;99.90;;;;;;4955362;28;20049;-65
2022/10/24 11:45:13;;;;;;;4.43;0.70;;;17.20;99.90;;;;;;4953520;28;20493;-65
2022/10/24 11:47:57;;;;;;;4.20;0.85;;;17.00;99.90;;;;;;4955548;28;20331;-66
2022/10/24 11:50:33;;;;;;;8.70;0.80;;;17.00;99.90;;;;;;4937433;28;20402;-65
2022/10/24 11:53:22;;;;;;;4.28;0.85;;;16.90;99.90;;;;;;4952618;28;20077;-65
2022/10/24 11:56:16;;;;;;;7.72;1.55;;;17.10;99.90;;;;;;4936583;28;20051;-63
2022/10/24 11:58:55;;;;;;;7.43;1.30;;;17.00;99.90;;;;;;4937949;28;20055;-63
2022/10/24 12:01:46;;;;;;;7.95;1.20;;;17.00;99.90;;;;;;4937925;28;20117;-63
2022/10/24 12:04:42;;;;;;;4.32;0.85;;;17.20;99.90;;;;;;4937532;28;20051;-64
2022/10/24 12:07:14;;;;;;;11.25;1.70;;;17.10;99.90;;;;;;4955113;28;20043;-65
2022/10/24 12:09:42;;;;;;;3.17;1.23;;;17.10;99.90;;;;;;4954912;28;20043;-64
2022/10/24 12:12:41;;;;;;;4.90;1.30;;;17.10;99.90;;;;;;4937880;28;20065;-64
2022/10/24 12:15:26;;;;;;;8.52;1.38;;;16.90;99.90;;;;;;4953567;28;20043;-63
2022/10/24 12:17:59;;;;;;;6.60;1.10;;;17.10;99.90;;;;;;4954734;28;21197;-64
2022/10/24 12:20:26;;;;;;;9.25;1.27;;;17.20;99.90;;;;;;4954670;28;20434;-64
2022/10/24 12:22:52;;;;;;;8.20;1.80;;;17.10;99.90;;;;;;4954881;28;20363;-64
2022/10/24 12:25:31;;;;;;;6.50;1.13;;;17.00;99.90;;;;;;4934809;29;20081;-64
2022/10/24 12:28:00;;;;;;;5.82;0.95;;;16.90;99.90;;;;;;4937447;28;20054;-64
2022/10/24 12:30:28;;;;;;;4.32;0.90;;;17.10;99.90;;;;;;4954703;28;20082;-64
2022/10/24 12:33:07;;;;;;;4.55;0.90;;;16.90;99.90;;;;;;4937057;28;20046;-63
2022/10/24 12:35:45;;;;;;;12.68;1.17;;;16.90;99.90;;;;;;4954762;28;20046;-64
2022/10/24 12:38:26;;;;;;;7.25;1.13;;;16.90;99.90;;;;;;4934859;28;20039;-64
2022/10/24 12:41:08;;;;;;;3.72;0.90;;;17.10;99.90;;;;;;4953839;28;20458;-65
2022/10/24 12:43:43;;;;;;;9.50;1.27;;;17.20;99.90;;;;;;4936989;28;20074;-65
2022/10/24 12:46:51;;;;;;;5.93;1.25;;;16.90;99.90;;;;;;4954569;28;20122;-63
2022/10/24 12:49:26;;;;;;;5.18;0.70;;;16.90;99.90;;;;;;4954024;28;20035;-64
2022/10/24 12:51:52;;;;;;;5.18;0.80;;;17.10;99.90;;;;;;4937246;28;20058;-65
2022/10/24 12:54:37;;;;;;;6.85;0.82;;;17.10;99.90;;;;;;4934952;29;20031;-64
2022/10/24 12:57:02;;;;;;;4.63;0.90;;;17.00;99.90;;;;;;4946993;29;20071;-64
2022/10/24 12:59:30;;;;;;;6.70;0.95;;;17.00;99.90;;;;;;4937156;29;20101;-64
2022/10/24 13:02:14;;;;;;;9.88;2.08;;;17.00;99.90;;;;;;4947527;29;20043;-64
2022/10/24 13:04:51;;;;;;;6.95;1.08;;;17.20;99.90;;;;;;4948292;28;20046;-64
2022/10/24 13:07:41;;;;;;;2.22;0.82;;;17.10;99.90;;;;;;4936935;29;20494;-63
2022/10/24 13:10:44;;;;;;;3.17;0.75;;;17.20;99.90;;;;;;4943814;29;20063;-63